createdAt,value
2022-07-25T00:00:49.370Z,99010.88
2022-07-25T00:01:53.296Z,99006.22
2022-07-25T00:02:55.996Z,99007.03
2022-07-25T00:03:58.652Z,98998.09
2022-07-25T00:05:01.198Z,99008.16
2022-07-25T00:06:03.639Z,98994.66
2022-07-25T00:07:05.931Z,99004.00
2022-07-25T00:08:08.244Z,99001.84
2022-07-25T00:09:10.561Z,98998.91
2022-07-25T00:10:12.885Z,98998.66
2022-07-25T00:11:15.195Z,98998.81
2022-07-25T00:12:17.618Z,98993.47
2022-07-25T00:13:19.971Z,98993.03
2022-07-25T00:14:22.211Z,98993.47
2022-07-25T00:15:24.556Z,98996.84
2022-07-25T00:16:27.229Z,98996.16
2022-07-25T00:17:29.537Z,98999.50
2022-07-25T00:18:31.811Z,99001.34
2022-07-25T00:19:34.073Z,98994.88
2022-07-25T00:20:36.354Z,98988.41
2022-07-25T00:21:38.655Z,99003.03
2022-07-25T00:22:40.889Z,98999.50
2022-07-25T00:23:43.289Z,98999.06
2022-07-25T00:24:45.505Z,98992.63
2022-07-25T00:25:47.770Z,98994.75
2022-07-25T00:26:50.158Z,98988.06
2022-07-25T00:27:52.819Z,98991.16
2022-07-25T00:28:55.099Z,98982.69
2022-07-25T00:29:57.355Z,98992.22
2022-07-25T00:30:59.814Z,98978.81
2022-07-25T00:32:02.085Z,98982.25
2022-07-25T00:33:04.376Z,98984.25
2022-07-25T00:34:06.942Z,98993.22
2022-07-25T00:35:09.662Z,98977.91
2022-07-25T00:36:12.034Z,98980.88
2022-07-25T00:37:14.295Z,98974.69
2022-07-25T00:38:16.581Z,98984.25
2022-07-25T00:39:18.841Z,98990.56
2022-07-25T00:40:21.202Z,98977.63
2022-07-25T00:41:23.539Z,98982.13
2022-07-25T00:42:25.822Z,98971.75
2022-07-25T00:43:28.057Z,98976.78
2022-07-25T00:44:32.433Z,98977.81
2022-07-25T00:45:34.754Z,98988.59
2022-07-25T00:46:39.254Z,98987.66
2022-07-25T00:47:41.543Z,98987.50
2022-07-25T00:48:44.600Z,98984.72
2022-07-25T00:49:46.955Z,98979.09
2022-07-25T00:50:49.187Z,98983.91
2022-07-25T00:51:52.959Z,98982.19
2022-07-25T00:52:55.651Z,98973.94
2022-07-25T00:53:57.926Z,98981.28
2022-07-25T00:55:01.006Z,98974.81
2022-07-25T00:56:04.474Z,98978.44
2022-07-25T00:57:06.768Z,98975.81
2022-07-25T00:58:08.994Z,98976.78
2022-07-25T00:59:11.517Z,98975.94
2022-07-25T01:00:15.227Z,98974.56
2022-07-25T01:01:17.545Z,98969.81
2022-07-25T01:02:19.922Z,98973.69
2022-07-25T01:03:22.255Z,98976.22
2022-07-25T01:04:24.709Z,98969.75
2022-07-25T01:05:27.134Z,98974.13
2022-07-25T01:06:29.660Z,98969.88
2022-07-25T01:07:32.714Z,98966.03
2022-07-25T01:08:35.582Z,98963.34
2022-07-25T01:09:38.035Z,98957.19
2022-07-25T01:10:40.600Z,98962.56
2022-07-25T01:11:42.914Z,98961.72
2022-07-25T01:12:49.135Z,98960.56
2022-07-25T01:13:51.687Z,98953.53
2022-07-25T01:14:53.894Z,98961.31
2022-07-25T01:15:56.237Z,98956.38
2022-07-25T01:16:58.542Z,98961.75
2022-07-25T01:18:00.925Z,98964.50
2022-07-25T01:19:03.762Z,98959.44
2022-07-25T01:20:12.532Z,98961.72
2022-07-25T01:21:14.787Z,98955.00
2022-07-25T01:22:17.372Z,98960.75
2022-07-25T01:23:19.769Z,98961.41
2022-07-25T01:24:22.056Z,98952.88
2022-07-25T01:25:25.052Z,98948.81
2022-07-25T01:26:27.323Z,98956.06
2022-07-25T01:27:29.634Z,98951.50
2022-07-25T01:28:31.871Z,98956.66
2022-07-25T01:29:34.292Z,98950.75
2022-07-25T01:30:38.469Z,98955.97
2022-07-25T01:31:40.972Z,98962.03
2022-07-25T01:37:26.543Z,98955.53
2022-07-25T01:38:28.830Z,98941.91
2022-07-25T01:39:31.099Z,98952.44
2022-07-25T01:40:33.357Z,98935.34
2022-07-25T01:41:35.574Z,98937.03
2022-07-25T01:42:38.011Z,98943.94
2022-07-25T01:43:40.521Z,98941.38
2022-07-25T01:44:42.800Z,98947.72
2022-07-25T01:45:45.162Z,98949.88
2022-07-25T01:46:47.457Z,98945.69
2022-07-25T01:47:49.776Z,98943.88
2022-07-25T01:48:52.200Z,98946.88
2022-07-25T01:49:54.498Z,98938.53
2022-07-25T01:50:56.862Z,98940.78
2022-07-25T01:52:00.274Z,98938.13
2022-07-25T01:53:02.602Z,98944.50
2022-07-25T01:54:05.865Z,98934.75
2022-07-25T01:55:12.914Z,98945.34
2022-07-25T01:56:15.343Z,98939.75
2022-07-25T01:57:17.595Z,98933.56
2022-07-25T01:58:20.370Z,98938.00
2022-07-25T01:59:23.757Z,98939.28
2022-07-25T02:00:26.064Z,98930.75
2022-07-25T02:01:28.398Z,98932.72
2022-07-25T02:02:30.738Z,98924.25
2022-07-25T02:03:33.133Z,98923.16
2022-07-25T02:04:36.577Z,98912.59
2022-07-25T02:05:38.997Z,98922.97
2022-07-25T02:06:41.490Z,98925.25
2022-07-25T02:07:43.889Z,98924.50
2022-07-25T02:08:46.491Z,98921.16
2022-07-25T02:09:54.756Z,98917.19
2022-07-25T02:10:59.244Z,98926.09
2022-07-25T02:12:01.838Z,98922.19
2022-07-25T02:13:04.193Z,98915.53
2022-07-25T02:14:07.143Z,98924.66
2022-07-25T02:15:10.044Z,98927.06
2022-07-25T02:16:12.382Z,98917.00
2022-07-25T02:17:14.969Z,98913.38
2022-07-25T02:18:17.444Z,98915.03
2022-07-25T02:19:19.667Z,98916.47
2022-07-25T02:20:21.983Z,98911.09
2022-07-25T02:21:26.017Z,98923.19
2022-07-25T02:22:28.293Z,98910.56
2022-07-25T02:23:30.486Z,98924.03
2022-07-25T02:24:32.766Z,98919.81
2022-07-25T02:25:35.581Z,98918.09
2022-07-25T02:26:37.898Z,98917.81
2022-07-25T02:27:40.269Z,98922.69
2022-07-25T02:28:42.646Z,98913.56
2022-07-25T02:29:44.944Z,98905.44
2022-07-25T02:30:47.346Z,98923.56
2022-07-25T02:31:51.810Z,98925.91
2022-07-25T02:32:54.074Z,98914.56
2022-07-25T02:33:56.446Z,98919.28
2022-07-25T02:34:58.638Z,98925.44
2022-07-25T02:36:00.887Z,98915.94
2022-07-25T02:37:03.177Z,98913.03
2022-07-25T02:38:05.461Z,98906.28
2022-07-25T02:39:07.784Z,98917.97
2022-07-25T02:40:10.580Z,98910.81
2022-07-25T02:41:12.828Z,98917.00
2022-07-25T02:42:15.255Z,98903.41
2022-07-25T02:43:18.395Z,98913.09
2022-07-25T02:44:20.640Z,98917.91
2022-07-25T02:45:22.849Z,98918.19
2022-07-25T02:46:25.304Z,98910.19
2022-07-25T02:47:27.643Z,98917.44
2022-07-25T02:48:30.152Z,98912.53
2022-07-25T02:49:32.488Z,98909.63
2022-07-25T02:50:35.647Z,98910.69
2022-07-25T02:51:37.904Z,98909.25
2022-07-25T02:52:40.213Z,98903.66
2022-07-25T02:53:58.857Z,98907.94
2022-07-25T02:55:04.904Z,98907.00
2022-07-25T02:56:11.286Z,98909.66
2022-07-25T02:57:16.788Z,98904.22
2022-07-25T02:58:19.104Z,98907.69
2022-07-25T02:59:21.365Z,98904.22
2022-07-25T03:00:23.937Z,98903.72
2022-07-25T03:01:26.872Z,98910.06
2022-07-25T03:02:29.107Z,98904.78
2022-07-25T03:03:31.396Z,98889.81
2022-07-25T03:04:34.033Z,98898.88
2022-07-25T03:05:36.456Z,98898.50
2022-07-25T03:06:38.725Z,98895.94
2022-07-25T03:07:42.143Z,98897.59
2022-07-25T03:08:44.381Z,98896.97
2022-07-25T03:09:46.591Z,98893.09
2022-07-25T03:10:48.958Z,98900.28
2022-07-25T03:11:52.034Z,98897.50
2022-07-25T03:12:54.223Z,98898.50
2022-07-25T03:13:56.575Z,98891.59
2022-07-25T03:14:59.821Z,98892.56
2022-07-25T03:16:02.134Z,98883.59
2022-07-25T03:17:04.474Z,98893.69
2022-07-25T03:18:06.881Z,98900.09
2022-07-25T03:19:10.644Z,98895.75
2022-07-25T03:20:13.076Z,98896.00
2022-07-25T03:21:15.333Z,98891.84
2022-07-25T03:22:17.703Z,98899.44
2022-07-25T03:23:19.995Z,98887.97
2022-07-25T03:24:22.271Z,98881.69
2022-07-25T03:25:24.608Z,98895.56
2022-07-25T03:26:26.876Z,98890.03
2022-07-25T03:27:29.353Z,98890.94
2022-07-25T03:28:31.679Z,98881.72
2022-07-25T03:29:34.321Z,98879.16
2022-07-25T03:30:36.584Z,98884.19
2022-07-25T03:31:38.958Z,98875.19
2022-07-25T03:32:41.366Z,98884.69
2022-07-25T03:33:43.675Z,98878.88
2022-07-25T03:34:46.179Z,98889.94
2022-07-25T03:35:48.690Z,98874.47
2022-07-25T03:36:50.922Z,98875.44
2022-07-25T03:37:53.614Z,98882.47
2022-07-25T03:38:56.674Z,98876.06
2022-07-25T03:39:58.932Z,98875.19
2022-07-25T03:41:01.319Z,98880.72
2022-07-25T03:42:03.749Z,98879.38
2022-07-25T03:43:06.098Z,98876.44
2022-07-25T03:44:08.879Z,98874.19
2022-07-25T03:45:11.769Z,98884.88
2022-07-25T03:46:14.488Z,98879.00
2022-07-25T03:47:20.521Z,98878.13
2022-07-25T03:48:23.255Z,98869.56
2022-07-25T03:49:25.483Z,98868.72
2022-07-25T03:50:27.835Z,98872.44
2022-07-25T03:51:30.160Z,98862.03
2022-07-25T03:52:32.543Z,98854.59
2022-07-25T03:53:55.794Z,98855.91
2022-07-25T03:54:58.150Z,98857.81
2022-07-25T03:56:00.453Z,98869.22
2022-07-25T03:57:02.779Z,98857.97
2022-07-25T03:58:05.265Z,98866.31
2022-07-25T03:59:08.348Z,98860.56
2022-07-25T04:00:12.482Z,98866.75
2022-07-25T04:01:14.898Z,98864.81
2022-07-25T04:02:17.314Z,98870.97
2022-07-25T04:03:19.870Z,98864.66
2022-07-25T04:04:22.200Z,98864.50
2022-07-25T04:05:24.643Z,98860.38
2022-07-25T04:06:27.106Z,98862.66
2022-07-25T04:07:30.528Z,98862.00
2022-07-25T04:08:32.811Z,98865.72
2022-07-25T04:09:35.192Z,98868.00
2022-07-25T04:10:37.632Z,98864.63
2022-07-25T04:11:39.900Z,98865.47
2022-07-25T04:12:42.137Z,98865.81
2022-07-25T04:13:44.494Z,98862.94
2022-07-25T04:14:46.856Z,98864.59
2022-07-25T04:15:49.116Z,98867.75
2022-07-25T04:16:51.574Z,98861.69
2022-07-25T04:17:53.816Z,98862.44
2022-07-25T04:18:57.871Z,98863.53
2022-07-25T04:20:00.178Z,98847.94
2022-07-25T04:21:03.437Z,98857.31
2022-07-25T04:22:05.752Z,98857.16
2022-07-25T04:23:08.059Z,98856.41
2022-07-25T04:24:10.428Z,98861.44
2022-07-25T04:25:12.696Z,98865.72
2022-07-25T04:26:15.201Z,98860.94
2022-07-25T04:27:17.465Z,98864.91
2022-07-25T04:28:19.765Z,98867.53
2022-07-25T04:29:22.030Z,98860.06
2022-07-25T04:30:24.986Z,98847.75
2022-07-25T04:31:27.600Z,98849.56
2022-07-25T04:32:30.623Z,98848.53
2022-07-25T04:33:32.902Z,98844.41
2022-07-25T04:34:35.190Z,98855.13
2022-07-25T04:35:37.732Z,98850.50
2022-07-25T04:36:40.067Z,98857.50
2022-07-25T04:37:42.393Z,98853.22
2022-07-25T04:38:45.417Z,98855.34
2022-07-25T04:39:47.674Z,98855.19
2022-07-25T04:40:50.486Z,98857.25
2022-07-25T04:41:52.802Z,98855.16
2022-07-25T04:42:55.021Z,98854.72
2022-07-25T04:43:57.410Z,98862.69
2022-07-25T04:44:59.660Z,98860.72
2022-07-25T04:46:02.099Z,98850.31
2022-07-25T04:47:05.027Z,98858.22
2022-07-25T04:48:07.511Z,98861.19
2022-07-25T04:49:09.845Z,98867.66
2022-07-25T04:50:12.902Z,98859.94
2022-07-25T04:51:16.270Z,98857.25
2022-07-25T04:52:18.668Z,98853.72
2022-07-25T04:53:20.994Z,98865.00
2022-07-25T04:54:23.227Z,98860.78
2022-07-25T04:55:25.734Z,98867.78
2022-07-25T04:56:28.074Z,98862.59
2022-07-25T04:57:30.581Z,98861.78
2022-07-25T04:58:33.105Z,98857.09
2022-07-25T04:59:35.319Z,98863.94
2022-07-25T05:00:38.134Z,98864.13
2022-07-25T05:01:40.483Z,98861.19
2022-07-25T05:02:43.496Z,98863.97
2022-07-25T05:03:50.067Z,98862.50
2022-07-25T05:04:53.379Z,98867.50
2022-07-25T05:05:55.751Z,98868.47
2022-07-25T05:06:57.989Z,98862.00
2022-07-25T05:08:00.821Z,98868.81
2022-07-25T05:09:03.347Z,98869.13
2022-07-25T05:10:06.113Z,98862.66
2022-07-25T05:11:08.429Z,98857.34
2022-07-25T05:12:10.738Z,98864.38
2022-07-25T05:13:12.959Z,98870.50
2022-07-25T05:14:15.568Z,98866.84
2022-07-25T05:15:18.023Z,98860.97
2022-07-25T05:16:20.293Z,98852.88
2022-07-25T05:17:22.656Z,98860.50
2022-07-25T05:18:24.998Z,98858.75
2022-07-25T05:19:27.240Z,98860.44
2022-07-25T05:20:29.591Z,98865.94
2022-07-25T05:21:32.551Z,98844.81
2022-07-25T05:22:34.791Z,98852.22
2022-07-25T05:23:37.089Z,98852.47
2022-07-25T05:24:39.346Z,98843.44
2022-07-25T05:25:41.892Z,98850.78
2022-07-25T05:26:44.157Z,98848.63
2022-07-25T05:27:46.470Z,98836.81
2022-07-25T05:28:48.892Z,98845.75
2022-07-25T05:29:51.198Z,98838.56
2022-07-25T05:30:53.441Z,98841.06
2022-07-25T05:31:55.812Z,98836.16
2022-07-25T05:32:58.187Z,98828.94
2022-07-25T05:34:00.482Z,98835.69
2022-07-25T05:35:03.497Z,98835.06
2022-07-25T05:36:06.192Z,98835.78
2022-07-25T05:37:08.489Z,98830.75
2022-07-25T05:38:10.827Z,98834.16
2022-07-25T05:39:13.275Z,98838.97
2022-07-25T05:40:15.613Z,98840.22
2022-07-25T05:41:17.874Z,98829.97
2022-07-25T05:42:20.180Z,98833.84
2022-07-25T05:43:22.723Z,98838.44
2022-07-25T05:44:24.981Z,98837.94
2022-07-25T05:45:27.238Z,98844.38
2022-07-25T05:46:32.085Z,98840.03
2022-07-25T05:47:34.569Z,98840.81
2022-07-25T05:48:37.424Z,98835.94
2022-07-25T05:49:39.877Z,98837.47
2022-07-25T05:50:42.265Z,98839.28
2022-07-25T05:51:44.518Z,98834.84
2022-07-25T05:52:46.857Z,98831.50
2022-07-25T05:53:49.138Z,98831.84
2022-07-25T05:54:51.485Z,98837.03
2022-07-25T05:55:54.262Z,98838.09
2022-07-25T05:56:56.616Z,98829.25
2022-07-25T05:57:59.412Z,98833.56
2022-07-25T05:59:01.733Z,98830.88
2022-07-25T06:00:06.115Z,98840.16
2022-07-25T06:01:12.341Z,98823.22
2022-07-25T06:02:14.689Z,98830.69
2022-07-25T06:03:18.789Z,98828.56
2022-07-25T06:04:26.813Z,98827.84
2022-07-25T06:05:29.572Z,98832.31
2022-07-25T06:06:32.729Z,98827.59
2022-07-25T06:07:35.085Z,98823.22
2022-07-25T06:08:38.459Z,98820.56
2022-07-25T06:09:40.673Z,98833.81
2022-07-25T06:10:43.243Z,98820.53
2022-07-25T06:11:54.534Z,98818.66
2022-07-25T06:13:02.316Z,98820.31
2022-07-25T06:14:04.900Z,98815.28
2022-07-25T06:15:12.644Z,98814.44
2022-07-25T06:16:25.223Z,98816.75
2022-07-25T06:17:32.105Z,98824.78
2022-07-25T06:18:34.970Z,98822.28
2022-07-25T06:19:37.278Z,98819.69
2022-07-25T06:20:39.581Z,98820.69
2022-07-25T06:21:41.817Z,98825.94
2022-07-25T06:22:44.085Z,98818.38
2022-07-25T06:23:46.381Z,98829.09
2022-07-25T06:24:48.698Z,98830.69
2022-07-25T06:25:50.995Z,98818.44
2022-07-25T06:26:53.273Z,98818.72
2022-07-25T06:27:55.528Z,98816.59
2022-07-25T06:28:57.877Z,98819.22
2022-07-25T06:30:00.124Z,98816.34
2022-07-25T06:31:02.605Z,98825.88
2022-07-25T06:32:05.227Z,98818.97
2022-07-25T06:33:07.468Z,98822.78
2022-07-25T06:34:10.287Z,98810.34
2022-07-25T06:35:12.886Z,98815.50
2022-07-25T06:36:15.452Z,98808.84
2022-07-25T06:37:17.695Z,98803.78
2022-07-25T06:38:20.051Z,98814.81
2022-07-25T06:39:22.326Z,98813.38
2022-07-25T06:40:24.805Z,98818.69
2022-07-25T06:41:27.196Z,98820.03
2022-07-25T06:42:31.331Z,98812.19
2022-07-25T06:43:33.553Z,98812.03
2022-07-25T06:44:35.844Z,98813.75
2022-07-25T06:45:38.462Z,98812.44
2022-07-25T06:46:41.202Z,98809.63
2022-07-25T06:47:44.371Z,98812.16
2022-07-25T06:48:46.857Z,98815.53
2022-07-25T06:49:49.205Z,98805.94
2022-07-25T06:50:51.667Z,98811.44
2022-07-25T06:51:53.944Z,98815.41
2022-07-25T06:52:56.206Z,98814.00
2022-07-25T06:53:58.790Z,98814.97
2022-07-25T06:55:01.323Z,98808.34
2022-07-25T06:56:03.922Z,98818.59
2022-07-25T06:57:06.174Z,98813.84
2022-07-25T06:58:08.934Z,98812.25
2022-07-25T06:59:11.668Z,98815.38
2022-07-25T07:00:14.558Z,98816.06
2022-07-25T07:01:16.836Z,98808.16
2022-07-25T07:02:19.388Z,98812.50
2022-07-25T07:03:21.895Z,98815.03
2022-07-25T07:04:24.254Z,98811.13
2022-07-25T07:05:29.752Z,98808.44
2022-07-25T07:06:32.150Z,98804.88
2022-07-25T07:07:34.606Z,98810.41
2022-07-25T07:08:38.657Z,98795.69
2022-07-25T07:09:40.963Z,98807.19
2022-07-25T07:10:43.718Z,98797.44
2022-07-25T07:11:46.036Z,98793.31
2022-07-25T07:12:49.474Z,98802.25
2022-07-25T07:13:52.241Z,98803.84
2022-07-25T07:14:54.561Z,98790.25
2022-07-25T07:15:56.898Z,98793.25
2022-07-25T07:16:59.249Z,98802.34
2022-07-25T07:18:01.496Z,98799.94
2022-07-25T07:19:04.195Z,98804.56
2022-07-25T07:20:08.340Z,98805.84
2022-07-25T07:21:11.684Z,98800.03
2022-07-25T07:22:23.461Z,98800.03
2022-07-25T07:23:25.835Z,98799.72
2022-07-25T07:24:31.188Z,98791.81
2022-07-25T07:25:34.350Z,98802.78
2022-07-25T07:26:36.813Z,98806.50
2022-07-25T07:27:39.107Z,98805.06
2022-07-25T07:28:41.662Z,98799.81
2022-07-25T07:29:44.086Z,98802.56
2022-07-25T07:32:08.850Z,98798.31
2022-07-25T07:33:11.131Z,98806.78
2022-07-25T07:34:16.217Z,98798.53
2022-07-25T07:35:19.247Z,98800.13
2022-07-25T07:36:22.112Z,98799.44
2022-07-25T07:37:24.508Z,98798.31
2022-07-25T07:38:27.235Z,98789.63
2022-07-25T07:39:29.521Z,98797.50
2022-07-25T07:40:32.056Z,98795.75
2022-07-25T07:41:34.352Z,98805.53
2022-07-25T07:42:47.934Z,98800.28
2022-07-25T07:43:50.210Z,98800.47
2022-07-25T07:44:52.529Z,98793.28
2022-07-25T07:45:56.004Z,98787.16
2022-07-25T07:47:02.538Z,98793.38
2022-07-25T07:48:06.234Z,98789.44
2022-07-25T07:49:08.898Z,98797.53
2022-07-25T07:50:11.510Z,98796.22
2022-07-25T07:51:13.834Z,98792.38
2022-07-25T07:52:16.133Z,98792.69
2022-07-25T07:53:18.554Z,98794.50
2022-07-25T07:54:39.201Z,98789.38
2022-07-25T07:55:44.411Z,98787.91
2022-07-25T07:56:46.731Z,98790.63
2022-07-25T07:57:49.100Z,98796.03
2022-07-25T07:58:51.355Z,98795.34
2022-07-25T07:59:53.850Z,98800.09
2022-07-25T08:00:56.193Z,98786.00
2022-07-25T08:01:58.614Z,98796.72
2022-07-25T08:03:01.296Z,98796.31
2022-07-25T08:04:03.858Z,98798.75
2022-07-25T08:05:06.729Z,98792.72
2022-07-25T08:06:09.101Z,98798.28
2022-07-25T08:07:11.420Z,98791.03
2022-07-25T08:08:15.232Z,98799.84
2022-07-25T08:09:17.580Z,98798.19
2022-07-25T08:10:22.330Z,98797.66
2022-07-25T08:11:26.278Z,98790.59
2022-07-25T08:12:28.565Z,98795.34
2022-07-25T08:13:33.978Z,98789.41
2022-07-25T08:14:36.296Z,98801.63
2022-07-25T08:15:38.557Z,98793.09
2022-07-25T08:16:40.942Z,98795.38
2022-07-25T08:17:44.880Z,98804.06
2022-07-25T08:18:47.264Z,98797.59
2022-07-25T08:19:49.507Z,98801.47
2022-07-25T08:20:52.394Z,98804.88
2022-07-25T08:21:54.637Z,98804.88
2022-07-25T08:22:57.115Z,98797.88
2022-07-25T08:24:00.043Z,98806.03
2022-07-25T08:25:02.337Z,98794.97
2022-07-25T08:26:05.623Z,98803.50
2022-07-25T08:27:07.918Z,98802.53
2022-07-25T08:28:10.750Z,98794.41
2022-07-25T08:29:22.961Z,98800.69
2022-07-25T08:30:30.021Z,98801.31
2022-07-25T08:31:32.320Z,98798.81
2022-07-25T08:32:34.726Z,98802.13
2022-07-25T08:33:37.295Z,98807.56
2022-07-25T08:34:39.617Z,98808.19
2022-07-25T08:35:51.706Z,98806.72
2022-07-25T08:36:54.006Z,98811.53
2022-07-25T08:37:56.917Z,98805.28
2022-07-25T08:38:59.635Z,98808.63
2022-07-25T08:40:01.858Z,98807.97
2022-07-25T08:41:05.032Z,98806.28
2022-07-25T08:42:11.115Z,98807.72
2022-07-25T08:43:15.590Z,98815.13
2022-07-25T08:44:18.846Z,98816.34
2022-07-25T08:45:22.062Z,98798.97
2022-07-25T08:46:24.600Z,98806.16
2022-07-25T08:47:28.817Z,98812.28
2022-07-25T08:48:31.417Z,98807.13
2022-07-25T08:49:35.176Z,98801.44
2022-07-25T08:50:39.094Z,98806.84
2022-07-25T08:51:41.632Z,98806.16
2022-07-25T08:52:45.708Z,98804.75
2022-07-25T08:53:48.785Z,98813.53
2022-07-25T08:54:51.376Z,98802.47
2022-07-25T08:55:53.667Z,98806.91
2022-07-25T08:56:56.008Z,98805.81
2022-07-25T08:57:58.264Z,98795.72
2022-07-25T08:59:00.517Z,98803.59
2022-07-25T09:00:06.233Z,98801.97
2022-07-25T09:01:08.739Z,98800.84
2022-07-25T09:02:15.344Z,98807.03
2022-07-25T09:03:17.932Z,98790.09
2022-07-25T09:04:20.728Z,98802.97
2022-07-25T09:05:24.580Z,98805.75
2022-07-25T09:06:26.798Z,98804.41
2022-07-25T09:07:31.577Z,98803.53
2022-07-25T09:08:33.914Z,98798.94
2022-07-25T09:09:39.420Z,98802.50
2022-07-25T09:10:48.055Z,98795.38
2022-07-25T09:11:50.389Z,98807.66
2022-07-25T09:13:00.689Z,98799.13
2022-07-25T09:14:09.712Z,98787.72
2022-07-25T09:15:27.023Z,98787.84
2022-07-25T09:16:40.893Z,98788.63
2022-07-25T09:17:50.349Z,98788.19
2022-07-25T09:18:52.623Z,98787.16
2022-07-25T09:19:56.670Z,98784.56
2022-07-25T09:21:00.761Z,98782.00
2022-07-25T09:22:06.325Z,98779.75
2022-07-25T09:23:15.607Z,98776.50
2022-07-25T09:24:18.983Z,98776.53
2022-07-25T09:25:21.956Z,98773.84
2022-07-25T09:26:24.616Z,98775.72
2022-07-25T09:27:34.422Z,98776.94
2022-07-25T09:28:43.488Z,98766.66
2022-07-25T09:29:45.898Z,98772.16
2022-07-25T09:30:59.563Z,98761.47
2022-07-25T09:32:13.374Z,98762.91
2022-07-25T09:33:15.579Z,98766.03
2022-07-25T09:34:45.776Z,98770.81
2022-07-25T09:35:48.265Z,98767.34
2022-07-25T09:36:52.947Z,98769.38
2022-07-25T09:37:55.250Z,98766.81
2022-07-25T09:39:02.439Z,98769.00
2022-07-25T09:40:14.050Z,98772.06
2022-07-25T09:41:16.447Z,98767.03
2022-07-25T09:42:27.455Z,98766.75
2022-07-25T09:43:40.640Z,98766.44
2022-07-25T09:44:43.109Z,98769.38
2022-07-25T09:45:52.173Z,98766.25
2022-07-25T09:46:54.582Z,98770.69
2022-07-25T09:48:00.121Z,98770.06
2022-07-25T09:49:02.500Z,98760.25
2022-07-25T09:50:06.628Z,98757.69
2022-07-25T09:51:08.962Z,98758.59
2022-07-25T09:52:12.454Z,98763.53
2022-07-25T09:53:15.127Z,98760.94
2022-07-25T09:54:18.064Z,98759.44
2022-07-25T09:55:21.709Z,98760.25
2022-07-25T09:56:24.031Z,98751.16
2022-07-25T09:57:27.585Z,98759.44
2022-07-25T09:58:30.068Z,98753.28
2022-07-25T09:59:38.065Z,98744.81
2022-07-25T10:00:42.551Z,98746.53
2022-07-25T10:01:56.450Z,98747.78
2022-07-25T10:03:20.840Z,98743.09
2022-07-25T10:04:52.637Z,98741.56
2022-07-25T10:05:57.727Z,98735.22
2022-07-25T10:07:12.123Z,98734.34
2022-07-25T10:08:15.147Z,98744.28
2022-07-25T10:09:17.945Z,98740.19
2022-07-25T10:10:32.278Z,98735.31
2022-07-25T10:11:34.695Z,98736.41
2022-07-25T10:12:38.200Z,98736.75
2022-07-25T10:13:40.767Z,98733.81
2022-07-25T10:14:43.186Z,98734.06
2022-07-25T10:15:52.989Z,98730.38
2022-07-25T10:16:55.431Z,98725.59
2022-07-25T10:18:06.755Z,98723.63
2022-07-25T10:19:09.073Z,98715.53
2022-07-25T10:20:11.838Z,98729.28
2022-07-25T10:21:25.444Z,98731.56
2022-07-25T10:22:55.966Z,98731.34
2022-07-25T10:24:06.401Z,98735.34
2022-07-25T10:25:17.350Z,98722.03
2022-07-25T10:26:20.280Z,98723.88
2022-07-25T10:27:23.932Z,98716.13
2022-07-25T10:28:40.130Z,98718.75
2022-07-25T10:29:42.722Z,98722.31
2022-07-25T10:30:45.161Z,98711.53
2022-07-25T10:31:51.263Z,98713.69
2022-07-25T10:32:58.478Z,98715.69
2022-07-25T10:34:04.685Z,98717.00
2022-07-25T10:35:16.021Z,98723.75
2022-07-25T10:36:20.054Z,98720.88
2022-07-25T10:37:32.527Z,98712.72
2022-07-25T10:38:34.841Z,98708.66
2022-07-25T10:39:39.099Z,98723.63
2022-07-25T10:40:46.592Z,98713.91
2022-07-25T10:42:00.339Z,98709.03
2022-07-25T10:43:13.892Z,98714.47
2022-07-25T10:44:16.476Z,98725.88
2022-07-25T10:45:18.801Z,98713.53
2022-07-25T10:46:23.438Z,98727.63
2022-07-25T10:47:27.477Z,98723.88
2022-07-25T10:48:33.228Z,98718.88
2022-07-25T10:49:37.488Z,98717.69
2022-07-25T10:50:56.804Z,98728.13
2022-07-25T10:52:01.489Z,98729.56
2022-07-25T10:53:09.091Z,98714.47
2022-07-25T10:54:18.125Z,98725.78
2022-07-25T10:55:23.939Z,98716.28
2022-07-25T10:56:29.231Z,98719.81
2022-07-25T10:57:32.338Z,98717.31
2022-07-25T10:58:51.224Z,98714.34
2022-07-25T10:59:53.588Z,98718.03
2022-07-25T11:00:56.036Z,98715.59
2022-07-25T11:01:59.153Z,98725.06
2022-07-25T11:03:01.641Z,98710.84
2022-07-25T11:04:14.340Z,98712.94
2022-07-25T11:05:16.705Z,98711.28
2022-07-25T11:06:31.761Z,98713.78
2022-07-25T11:07:36.923Z,98715.31
2022-07-25T11:08:39.236Z,98712.13
2022-07-25T11:09:44.574Z,98709.69
2022-07-25T11:10:51.416Z,98710.19
2022-07-25T11:11:57.260Z,98700.38
2022-07-25T11:12:59.530Z,98705.53
2022-07-25T11:14:02.227Z,98708.53
2022-07-25T11:15:07.448Z,98707.41
2022-07-25T11:16:10.214Z,98709.75
2022-07-25T11:17:20.861Z,98704.03
2022-07-25T11:18:34.334Z,98703.13
2022-07-25T11:19:36.572Z,98696.94
2022-07-25T11:20:38.865Z,98692.97
2022-07-25T11:21:45.795Z,98696.06
2022-07-25T11:22:53.613Z,98698.56
2022-07-25T11:23:55.920Z,98708.19
2022-07-25T11:24:59.532Z,98706.00
2022-07-25T11:26:10.597Z,98704.03
2022-07-25T11:27:21.856Z,98705.06
2022-07-25T11:28:24.149Z,98697.84
2022-07-25T11:29:29.568Z,98700.84
2022-07-25T11:30:32.411Z,98694.88
2022-07-25T11:31:35.645Z,98699.13
2022-07-25T11:32:40.434Z,98702.41
2022-07-25T11:33:47.652Z,98693.56
2022-07-25T11:34:53.467Z,98693.47
2022-07-25T11:36:01.118Z,98700.94
2022-07-25T11:37:07.874Z,98691.59
2022-07-25T11:38:13.937Z,98691.69
2022-07-25T11:39:18.965Z,98699.19
2022-07-25T11:40:22.867Z,98686.00
2022-07-25T11:41:30.138Z,98687.88
2022-07-25T11:42:47.976Z,98691.94
2022-07-25T11:43:50.255Z,98699.50
2022-07-25T11:44:53.125Z,98687.00
2022-07-25T11:45:58.097Z,98694.88
2022-07-25T11:47:00.605Z,98695.06
2022-07-25T11:48:11.449Z,98687.91
2022-07-25T11:49:14.956Z,98698.41
2022-07-25T11:50:17.365Z,98697.56
2022-07-25T11:51:19.713Z,98686.22
2022-07-25T11:52:30.559Z,98693.13
2022-07-25T11:53:39.841Z,98681.25
2022-07-25T11:54:51.422Z,98675.03
2022-07-25T11:55:53.792Z,98674.69
2022-07-25T11:56:56.030Z,98682.03
2022-07-25T11:58:00.954Z,98683.59
2022-07-25T11:59:03.354Z,98690.38
2022-07-25T12:00:19.306Z,98690.41
2022-07-25T12:01:21.776Z,98679.63
2022-07-25T12:02:31.114Z,98688.19
2022-07-25T12:03:38.055Z,98687.91
2022-07-25T12:04:40.573Z,98684.16
2022-07-25T12:05:43.229Z,98685.88
2022-07-25T12:06:49.109Z,98683.66
2022-07-25T12:07:54.423Z,98681.44
2022-07-25T12:08:56.749Z,98684.09
2022-07-25T12:09:59.048Z,98678.13
2022-07-25T12:11:01.353Z,98681.25
2022-07-25T12:12:04.326Z,98677.03
2022-07-25T12:13:08.712Z,98677.03
2022-07-25T12:14:11.759Z,98681.31
2022-07-25T12:15:15.471Z,98679.56
2022-07-25T12:16:17.947Z,98685.78
2022-07-25T12:17:20.299Z,98685.38
2022-07-25T12:18:22.588Z,98677.22
2022-07-25T12:19:24.863Z,98667.69
2022-07-25T12:20:28.209Z,98676.00
2022-07-25T12:21:30.604Z,98665.28
2022-07-25T12:22:32.968Z,98669.50
2022-07-25T12:23:35.375Z,98660.91
2022-07-25T12:24:37.686Z,98661.25
2022-07-25T12:25:42.889Z,98662.25
2022-07-25T12:26:45.276Z,98651.16
2022-07-25T12:27:48.048Z,98648.97
2022-07-25T12:28:50.375Z,98660.81
2022-07-25T12:29:52.652Z,98654.63
2022-07-25T12:30:56.882Z,98654.44
2022-07-25T12:31:59.569Z,98663.91
2022-07-25T12:33:01.904Z,98652.16
2022-07-25T12:34:04.216Z,98666.88
2022-07-25T12:35:08.284Z,98668.13
2022-07-25T12:36:13.791Z,98663.00